sensor_id;sensor_type;location;lat;lon;timestamp;pressure;altitude;pressure_sealevel;temperature;humidity
75039;BME280;63609;49.992;14.512;2023-08-08T00:03:31;97982.09;;;9.80;71.93
75039;BME280;63609;49.992;14.512;2023-08-08T00:05:58;97996.00;;;9.74;71.78
75039;BME280;63609;49.992;14.512;2023-08-08T00:08:25;97994.34;;;9.73;71.62
75039;BME280;63609;49.992;14.512;2023-08-08T00:10:52;98005.34;;;9.60;72.19
75039;BME280;63609;49.992;14.512;2023-08-08T00:13:19;98001.59;;;9.80;71.12
75039;BME280;63609;49.992;14.512;2023-08-08T00:15:46;97995.25;;;9.91;71.19
75039;BME280;63609;49.992;14.512;2023-08-08T00:18:13;98003.13;;;9.93;70.56
75039;BME280;63609;49.992;14.512;2023-08-08T00:20:41;97998.00;;;9.72;71.54
75039;BME280;63609;49.992;14.512;2023-08-08T00:23:08;97997.66;;;9.85;70.96
75039;BME280;63609;49.992;14.512;2023-08-08T00:25:36;97990.69;;;9.74;70.82
75039;BME280;63609;49.992;14.512;2023-08-08T00:28:03;97994.13;;;9.94;70.36
75039;BME280;63609;49.992;14.512;2023-08-08T00:30:30;97991.38;;;9.76;70.83
75039;BME280;63609;49.992;14.512;2023-08-08T00:32:57;97997.34;;;9.60;71.31
75039;BME280;63609;49.992;14.512;2023-08-08T00:35:24;97994.09;;;9.66;71.62
75039;BME280;63609;49.992;14.512;2023-08-08T00:37:51;98000.78;;;9.43;71.62
75039;BME280;63609;49.992;14.512;2023-08-08T00:40:19;97992.31;;;9.57;71.96
75039;BME280;63609;49.992;14.512;2023-08-08T00:42:45;97999.97;;;9.70;71.09
75039;BME280;63609;49.992;14.512;2023-08-08T00:45:12;97995.38;;;9.62;71.49
75039;BME280;63609;49.992;14.512;2023-08-08T00:47:39;97991.09;;;9.51;71.48
75039;BME280;63609;49.992;14.512;2023-08-08T00:50:07;97991.88;;;9.62;71.16
75039;BME280;63609;49.992;14.512;2023-08-08T00:52:35;98000.75;;;9.52;71.27
75039;BME280;63609;49.992;14.512;2023-08-08T00:55:03;97991.28;;;9.68;70.48
75039;BME280;63609;49.992;14.512;2023-08-08T00:57:30;97990.88;;;9.63;71.00
75039;BME280;63609;49.992;14.512;2023-08-08T00:59:57;97991.19;;;9.60;71.21
75039;BME280;63609;49.992;14.512;2023-08-08T01:02:24;97989.22;;;9.62;71.38
75039;BME280;63609;49.992;14.512;2023-08-08T01:04:51;97991.78;;;9.81;70.49
75039;BME280;63609;49.992;14.512;2023-08-08T01:10:08;97978.19;;;9.74;70.81
75039;BME280;63609;49.992;14.512;2023-08-08T01:12:56;97986.81;;;9.96;69.98
75039;BME280;63609;49.992;14.512;2023-08-08T01:15:26;97977.34;;;9.74;70.47
75039;BME280;63609;49.992;14.512;2023-08-08T01:18:05;97985.56;;;9.90;69.79
75039;BME280;63609;49.992;14.512;2023-08-08T01:20:33;97983.72;;;9.63;70.92
75039;BME280;63609;49.992;14.512;2023-08-08T01:25:34;97982.66;;;9.83;70.12
75039;BME280;63609;49.992;14.512;2023-08-08T01:28:03;97980.16;;;9.72;70.30
75039;BME280;63609;49.992;14.512;2023-08-08T01:30:31;97982.75;;;9.64;71.17
75039;BME280;63609;49.992;14.512;2023-08-08T01:33:00;97986.88;;;9.49;71.17
75039;BME280;63609;49.992;14.512;2023-08-08T01:35:30;97990.97;;;9.71;70.03
75039;BME280;63609;49.992;14.512;2023-08-08T01:38:09;97987.31;;;9.72;69.97
75039;BME280;63609;49.992;14.512;2023-08-08T01:40:38;97986.63;;;9.70;70.53
75039;BME280;63609;49.992;14.512;2023-08-08T01:43:08;97988.28;;;9.43;70.98
75039;BME280;63609;49.992;14.512;2023-08-08T01:45:37;97977.38;;;9.37;70.85
75039;BME280;63609;49.992;14.512;2023-08-08T01:48:11;97970.69;;;9.60;70.45
75039;BME280;63609;49.992;14.512;2023-08-08T01:50:38;97980.97;;;9.45;70.30
75039;BME280;63609;49.992;14.512;2023-08-08T01:53:05;97977.47;;;9.82;69.70
75039;BME280;63609;49.992;14.512;2023-08-08T01:55:32;97967.13;;;9.42;70.69
75039;BME280;63609;49.992;14.512;2023-08-08T01:57:59;97961.31;;;9.56;70.56
75039;BME280;63609;49.992;14.512;2023-08-08T02:00:26;97956.41;;;9.24;71.15
75039;BME280;63609;49.992;14.512;2023-08-08T02:02:55;97958.28;;;9.41;70.81
75039;BME280;63609;49.992;14.512;2023-08-08T02:05:22;97966.28;;;9.41;70.47
75039;BME280;63609;49.992;14.512;2023-08-08T02:07:49;97967.41;;;9.39;70.23
75039;BME280;63609;49.992;14.512;2023-08-08T02:10:17;97965.22;;;9.25;70.61
75039;BME280;63609;49.992;14.512;2023-08-08T02:12:45;97968.03;;;9.13;71.27
75039;BME280;63609;49.992;14.512;2023-08-08T02:15:12;97971.78;;;9.30;70.19
75039;BME280;63609;49.992;14.512;2023-08-08T02:17:39;97972.34;;;9.34;70.45
75039;BME280;63609;49.992;14.512;2023-08-08T02:20:07;97970.75;;;9.50;69.99
75039;BME280;63609;49.992;14.512;2023-08-08T02:22:34;97973.19;;;9.34;70.15
75039;BME280;63609;49.992;14.512;2023-08-08T02:25:03;97975.38;;;9.48;69.67
75039;BME280;63609;49.992;14.512;2023-08-08T02:27:34;97966.31;;;9.32;70.55
75039;BME280;63609;49.992;14.512;2023-08-08T02:30:01;97968.09;;;9.41;70.11
75039;BME280;63609;49.992;14.512;2023-08-08T02:32:28;97967.41;;;9.48;69.30
75039;BME280;63609;49.992;14.512;2023-08-08T02:34:55;97972.84;;;9.47;69.71
75039;BME280;63609;49.992;14.512;2023-08-08T02:37:23;97964.69;;;9.21;70.09
75039;BME280;63609;49.992;14.512;2023-08-08T02:39:50;97967.59;;;9.28;70.20
75039;BME280;63609;49.992;14.512;2023-08-08T02:42:17;97964.28;;;9.16;70.48
75039;BME280;63609;49.992;14.512;2023-08-08T02:44:44;97961.63;;;9.16;70.50
75039;BME280;63609;49.992;14.512;2023-08-08T02:47:11;97960.50;;;9.18;70.38
75039;BME280;63609;49.992;14.512;2023-08-08T02:49:38;97966.66;;;9.19;69.80
75039;BME280;63609;49.992;14.512;2023-08-08T02:52:06;97961.44;;;9.27;70.06
75039;BME280;63609;49.992;14.512;2023-08-08T02:54:34;97963.06;;;9.38;69.43
75039;BME280;63609;49.992;14.512;2023-08-08T02:57:01;97960.00;;;9.33;69.99
75039;BME280;63609;49.992;14.512;2023-08-08T02:59:28;97966.13;;;9.43;69.65
75039;BME280;63609;49.992;14.512;2023-08-08T03:01:56;97977.22;;;9.38;69.42
75039;BME280;63609;49.992;14.512;2023-08-08T03:04:24;97965.28;;;9.52;69.25
75039;BME280;63609;49.992;14.512;2023-08-08T03:06:51;97964.59;;;9.50;69.41
75039;BME280;63609;49.992;14.512;2023-08-08T03:09:22;97965.41;;;9.78;68.47
75039;BME280;63609;49.992;14.512;2023-08-08T03:11:49;97969.19;;;9.48;69.40
75039;BME280;63609;49.992;14.512;2023-08-08T03:14:16;97964.63;;;9.68;68.82
75039;BME280;63609;49.992;14.512;2023-08-08T03:16:43;97968.34;;;9.47;69.15
75039;BME280;63609;49.992;14.512;2023-08-08T03:19:11;97960.25;;;9.49;69.25
75039;BME280;63609;49.992;14.512;2023-08-08T03:21:38;97966.75;;;9.64;68.84
75039;BME280;63609;49.992;14.512;2023-08-08T03:24:06;97962.09;;;9.39;69.33
75039;BME280;63609;49.992;14.512;2023-08-08T03:26:33;97966.38;;;9.77;68.65
75039;BME280;63609;49.992;14.512;2023-08-08T03:29:00;97969.19;;;9.75;68.65
75039;BME280;63609;49.992;14.512;2023-08-08T03:31:35;97961.19;;;9.75;69.03
75039;BME280;63609;49.992;14.512;2023-08-08T03:34:04;97961.34;;;9.74;68.47
75039;BME280;63609;49.992;14.512;2023-08-08T03:36:34;97967.66;;;9.82;68.15
75039;BME280;63609;49.992;14.512;2023-08-08T03:39:01;97966.25;;;9.78;68.90
75039;BME280;63609;49.992;14.512;2023-08-08T03:41:28;97967.31;;;9.95;67.99
75039;BME280;63609;49.992;14.512;2023-08-08T03:43:55;97966.34;;;9.87;68.56
75039;BME280;63609;49.992;14.512;2023-08-08T03:46:24;97974.00;;;9.72;69.01
75039;BME280;63609;49.992;14.512;2023-08-08T03:48:51;97976.50;;;9.73;69.33
75039;BME280;63609;49.992;14.512;2023-08-08T03:51:20;97976.91;;;10.06;67.82
75039;BME280;63609;49.992;14.512;2023-08-08T03:53:47;97971.38;;;9.90;68.63
75039;BME280;63609;49.992;14.512;2023-08-08T03:56:14;97982.81;;;9.82;69.12
75039;BME280;63609;49.992;14.512;2023-08-08T03:58:41;97980.31;;;9.71;69.19
75039;BME280;63609;49.992;14.512;2023-08-08T04:01:08;97975.44;;;9.66;69.60
75039;BME280;63609;49.992;14.512;2023-08-08T04:03:36;97971.31;;;9.72;70.10
75039;BME280;63609;49.992;14.512;2023-08-08T04:06:04;97967.59;;;9.65;70.01
75039;BME280;63609;49.992;14.512;2023-08-08T04:08:32;97962.84;;;9.86;69.42
75039;BME280;63609;49.992;14.512;2023-08-08T04:10:59;97968.75;;;9.80;69.94
75039;BME280;63609;49.992;14.512;2023-08-08T04:13:28;97969.72;;;9.61;70.58
75039;BME280;63609;49.992;14.512;2023-08-08T04:15:56;97973.31;;;9.97;69.26
75039;BME280;63609;49.992;14.512;2023-08-08T04:18:22;97969.78;;;10.24;68.26
75039;BME280;63609;49.992;14.512;2023-08-08T04:20:49;97974.84;;;9.72;69.99
75039;BME280;63609;49.992;14.512;2023-08-08T04:23:18;97975.22;;;9.77;69.76
75039;BME280;63609;49.992;14.512;2023-08-08T04:25:45;97977.19;;;9.75;69.86
75039;BME280;63609;49.992;14.512;2023-08-08T04:28:12;97988.22;;;9.90;68.94
75039;BME280;63609;49.992;14.512;2023-08-08T04:30:39;97988.00;;;9.74;69.57
75039;BME280;63609;49.992;14.512;2023-08-08T04:33:06;97987.19;;;9.73;69.34
75039;BME280;63609;49.992;14.512;2023-08-08T04:35:33;97994.28;;;9.55;70.28
75039;BME280;63609;49.992;14.512;2023-08-08T04:38:00;97991.63;;;9.45;70.06
75039;BME280;63609;49.992;14.512;2023-08-08T04:40:27;97994.16;;;9.84;69.14
75039;BME280;63609;49.992;14.512;2023-08-08T04:42:54;97990.88;;;9.90;68.50
75039;BME280;63609;49.992;14.512;2023-08-08T04:45:21;97994.16;;;9.84;68.86
75039;BME280;63609;49.992;14.512;2023-08-08T04:47:48;97997.59;;;9.67;69.09
75039;BME280;63609;49.992;14.512;2023-08-08T04:50:15;97993.81;;;9.97;68.68
75039;BME280;63609;49.992;14.512;2023-08-08T04:52:43;97989.13;;;10.08;68.02
75039;BME280;63609;49.992;14.512;2023-08-08T04:55:10;97997.97;;;9.81;69.06
75039;BME280;63609;49.992;14.512;2023-08-08T04:57:37;98007.47;;;10.11;68.01
75039;BME280;63609;49.992;14.512;2023-08-08T05:00:05;98005.41;;;10.05;68.17
75039;BME280;63609;49.992;14.512;2023-08-08T05:02:35;98008.25;;;10.04;67.96
75039;BME280;63609;49.992;14.512;2023-08-08T05:05:02;98003.34;;;9.99;67.81
75039;BME280;63609;49.992;14.512;2023-08-08T05:07:29;98010.25;;;10.37;67.06
75039;BME280;63609;49.992;14.512;2023-08-08T05:09:56;98000.13;;;10.41;66.80
75039;BME280;63609;49.992;14.512;2023-08-08T05:12:24;98007.00;;;10.26;67.28
75039;BME280;63609;49.992;14.512;2023-08-08T05:14:54;98012.84;;;10.29;67.32
75039;BME280;63609;49.992;14.512;2023-08-08T05:17:21;98007.94;;;10.52;66.56
75039;BME280;63609;49.992;14.512;2023-08-08T05:19:48;98001.03;;;10.32;67.37
75039;BME280;63609;49.992;14.512;2023-08-08T05:22:15;98014.75;;;10.37;67.21
75039;BME280;63609;49.992;14.512;2023-08-08T05:24:42;98011.88;;;10.30;67.35
75039;BME280;63609;49.992;14.512;2023-08-08T05:27:09;98017.34;;;10.29;67.54
75039;BME280;63609;49.992;14.512;2023-08-08T05:29:36;98021.94;;;10.36;67.71
75039;BME280;63609;49.992;14.512;2023-08-08T05:32:05;98010.88;;;10.31;67.58
75039;BME280;63609;49.992;14.512;2023-08-08T05:34:34;98009.03;;;10.32;67.79
75039;BME280;63609;49.992;14.512;2023-08-08T05:37:01;98005.16;;;10.26;68.24
75039;BME280;63609;49.992;14.512;2023-08-08T05:39:42;98006.94;;;10.53;67.24
75039;BME280;63609;49.992;14.512;2023-08-08T05:42:09;98004.94;;;10.73;66.74
75039;BME280;63609;49.992;14.512;2023-08-08T05:44:36;98002.34;;;10.45;67.37
75039;BME280;63609;49.992;14.512;2023-08-08T05:47:03;97994.13;;;11.18;66.16
75039;BME280;63609;49.992;14.512;2023-08-08T05:49:30;97989.16;;;11.23;65.22
75039;BME280;63609;49.992;14.512;2023-08-08T05:51:57;97988.47;;;11.47;65.09
75039;BME280;63609;49.992;14.512;2023-08-08T05:54:24;97994.84;;;11.54;64.05
75039;BME280;63609;49.992;14.512;2023-08-08T05:56:51;97996.91;;;11.68;64.00
75039;BME280;63609;49.992;14.512;2023-08-08T05:59:18;97988.22;;;11.66;64.81
75039;BME280;63609;49.992;14.512;2023-08-08T06:01:45;97980.00;;;12.02;63.25
75039;BME280;63609;49.992;14.512;2023-08-08T06:04:13;97979.31;;;11.58;63.53
75039;BME280;63609;49.992;14.512;2023-08-08T06:06:40;97981.28;;;11.48;64.25
75039;BME280;63609;49.992;14.512;2023-08-08T06:09:07;97993.88;;;11.63;62.98
75039;BME280;63609;49.992;14.512;2023-08-08T06:11:35;97992.72;;;11.66;63.65
75039;BME280;63609;49.992;14.512;2023-08-08T06:14:02;97998.59;;;11.69;63.39
75039;BME280;63609;49.992;14.512;2023-08-08T06:16:29;97984.31;;;11.87;63.69
75039;BME280;63609;49.992;14.512;2023-08-08T06:18:56;97990.38;;;12.05;63.30
75039;BME280;63609;49.992;14.512;2023-08-08T06:21:23;97993.25;;;12.12;62.55
75039;BME280;63609;49.992;14.512;2023-08-08T06:23:50;97994.38;;;12.01;62.32
75039;BME280;63609;49.992;14.512;2023-08-08T06:26:19;97999.53;;;11.94;62.99
75039;BME280;63609;49.992;14.512;2023-08-08T06:28:47;98005.06;;;12.01;62.43
75039;BME280;63609;49.992;14.512;2023-08-08T06:31:15;98005.03;;;12.27;61.97
75039;BME280;63609;49.992;14.512;2023-08-08T06:33:42;98000.84;;;12.33;62.62
75039;BME280;63609;49.992;14.512;2023-08-08T06:36:09;98010.53;;;12.25;61.65
75039;BME280;63609;49.992;14.512;2023-08-08T06:38:36;98003.69;;;12.39;61.79
75039;BME280;63609;49.992;14.512;2023-08-08T06:41:03;98004.91;;;12.03;62.80
75039;BME280;63609;49.992;14.512;2023-08-08T06:43:31;98007.19;;;12.23;62.36
75039;BME280;63609;49.992;14.512;2023-08-08T06:45:59;98007.69;;;12.19;61.91
75039;BME280;63609;49.992;14.512;2023-08-08T06:48:25;98001.28;;;12.12;62.58
75039;BME280;63609;49.992;14.512;2023-08-08T06:50:53;97996.38;;;12.49;62.18
75039;BME280;63609;49.992;14.512;2023-08-08T06:53:20;98001.25;;;12.70;61.57
75039;BME280;63609;49.992;14.512;2023-08-08T06:55:47;98007.09;;;12.66;61.25
75039;BME280;63609;49.992;14.512;2023-08-08T06:58:14;98004.44;;;12.74;60.76
75039;BME280;63609;49.992;14.512;2023-08-08T07:00:40;97996.41;;;12.82;61.54
75039;BME280;63609;49.992;14.512;2023-08-08T07:03:10;98001.75;;;12.90;60.47
75039;BME280;63609;49.992;14.512;2023-08-08T07:05:37;98008.94;;;13.46;59.66
75039;BME280;63609;49.992;14.512;2023-08-08T07:08:08;98004.28;;;13.24;60.00
75039;BME280;63609;49.992;14.512;2023-08-08T07:10:35;97998.00;;;13.56;59.42
75039;BME280;63609;49.992;14.512;2023-08-08T07:13:03;98011.31;;;13.41;59.53
75039;BME280;63609;49.992;14.512;2023-08-08T07:15:30;98007.78;;;13.00;59.81
75039;BME280;63609;49.992;14.512;2023-08-08T07:17:58;98003.75;;;13.45;58.53
75039;BME280;63609;49.992;14.512;2023-08-08T07:20:24;98011.97;;;13.35;59.17
75039;BME280;63609;49.992;14.512;2023-08-08T07:22:52;98009.63;;;13.32;58.88
75039;BME280;63609;49.992;14.512;2023-08-08T07:25:19;98013.66;;;13.28;59.89
75039;BME280;63609;49.992;14.512;2023-08-08T07:27:46;98017.84;;;13.06;58.67
75039;BME280;63609;49.992;14.512;2023-08-08T07:30:13;98012.94;;;13.50;57.71
75039;BME280;63609;49.992;14.512;2023-08-08T07:32:40;98015.56;;;13.75;57.88
75039;BME280;63609;49.992;14.512;2023-08-08T07:35:07;98020.84;;;13.44;58.05
75039;BME280;63609;49.992;14.512;2023-08-08T07:37:35;98020.19;;;13.42;58.52
75039;BME280;63609;49.992;14.512;2023-08-08T07:40:03;98017.47;;;13.58;57.96
75039;BME280;63609;49.992;14.512;2023-08-08T07:42:39;98020.72;;;13.21;58.58
75039;BME280;63609;49.992;14.512;2023-08-08T07:45:06;98010.94;;;13.52;56.54
75039;BME280;63609;49.992;14.512;2023-08-08T07:47:33;98014.91;;;14.51;56.21
75039;BME280;63609;49.992;14.512;2023-08-08T07:50:00;98019.03;;;13.92;56.01
75039;BME280;63609;49.992;14.512;2023-08-08T07:52:30;98018.97;;;14.47;54.45
75039;BME280;63609;49.992;14.512;2023-08-08T07:54:57;98008.22;;;14.16;54.03
75039;BME280;63609;49.992;14.512;2023-08-08T07:57:24;98018.00;;;13.93;55.13
75039;BME280;63609;49.992;14.512;2023-08-08T07:59:52;98010.13;;;13.91;54.37
75039;BME280;63609;49.992;14.512;2023-08-08T08:02:19;98010.75;;;14.01;55.31
75039;BME280;63609;49.992;14.512;2023-08-08T08:04:46;98011.97;;;14.38;53.66
75039;BME280;63609;49.992;14.512;2023-08-08T08:07:13;98004.50;;;14.48;54.14
75039;BME280;63609;49.992;14.512;2023-08-08T08:09:40;97992.22;;;15.37;52.19
75039;BME280;63609;49.992;14.512;2023-08-08T08:12:09;97996.09;;;14.51;51.83
75039;BME280;63609;49.992;14.512;2023-08-08T08:14:36;97998.22;;;14.33;54.83
75039;BME280;63609;49.992;14.512;2023-08-08T08:17:03;97998.50;;;15.15;52.75
75039;BME280;63609;49.992;14.512;2023-08-08T08:19:30;97991.69;;;15.71;51.90
75039;BME280;63609;49.992;14.512;2023-08-08T08:21:57;97991.03;;;15.39;51.77
75039;BME280;63609;49.992;14.512;2023-08-08T08:24:25;97978.84;;;15.29;52.12
75039;BME280;63609;49.992;14.512;2023-08-08T08:26:52;97980.91;;;15.42;51.98
75039;BME280;63609;49.992;14.512;2023-08-08T08:29:19;97978.22;;;15.42;51.06
75039;BME280;63609;49.992;14.512;2023-08-08T08:31:46;97979.72;;;15.44;50.01
75039;BME280;63609;49.992;14.512;2023-08-08T08:34:13;97975.63;;;15.78;49.88
75039;BME280;63609;49.992;14.512;2023-08-08T08:36:39;97977.50;;;16.43;49.39
75039;BME280;63609;49.992;14.512;2023-08-08T08:39:07;97967.38;;;15.94;48.85
75039;BME280;63609;49.992;14.512;2023-08-08T08:41:35;97970.34;;;15.99;49.07
75039;BME280;63609;49.992;14.512;2023-08-08T08:44:05;97957.31;;;15.88;47.78
75039;BME280;63609;49.992;14.512;2023-08-08T08:46:35;97968.13;;;16.03;49.34
75039;BME280;63609;49.992;14.512;2023-08-08T08:49:05;97963.19;;;16.42;48.85
75039;BME280;63609;49.992;14.512;2023-08-08T08:51:37;97961.88;;;15.58;50.03
75039;BME280;63609;49.992;14.512;2023-08-08T08:54:05;97967.47;;;16.00;49.21
75039;BME280;63609;49.992;14.512;2023-08-08T08:56:33;97963.84;;;15.49;48.24
75039;BME280;63609;49.992;14.512;2023-08-08T08:59:00;97952.81;;;16.24;46.96
75039;BME280;63609;49.992;14.512;2023-08-08T09:01:28;97951.97;;;16.24;47.85
75039;BME280;63609;49.992;14.512;2023-08-08T09:03:55;97953.81;;;16.59;48.12
75039;BME280;63609;49.992;14.512;2023-08-08T09:06:28;97950.03;;;16.54;46.70
75039;BME280;63609;49.992;14.512;2023-08-08T09:08:55;97955.13;;;16.27;46.46
75039;BME280;63609;49.992;14.512;2023-08-08T09:11:37;97963.06;;;16.72;47.01
75039;BME280;63609;49.992;14.512;2023-08-08T09:14:04;97960.72;;;16.26;47.70
75039;BME280;63609;49.992;14.512;2023-08-08T09:16:31;97966.34;;;16.31;48.25
75039;BME280;63609;49.992;14.512;2023-08-08T09:18:58;97956.91;;;16.20;47.37
75039;BME280;63609;49.992;14.512;2023-08-08T09:21:25;97948.81;;;16.35;48.08
75039;BME280;63609;49.992;14.512;2023-08-08T09:23:51;97957.28;;;16.53;48.30
75039;BME280;63609;49.992;14.512;2023-08-08T09:26:18;97962.38;;;16.27;47.42
75039;BME280;63609;49.992;14.512;2023-08-08T09:28:45;97968.41;;;16.65;45.78
75039;BME280;63609;49.992;14.512;2023-08-08T09:31:12;97958.94;;;16.33;45.67
75039;BME280;63609;49.992;14.512;2023-08-08T09:33:39;97961.03;;;15.87;46.11
75039;BME280;63609;49.992;14.512;2023-08-08T09:36:07;97968.53;;;16.21;46.07
75039;BME280;63609;49.992;14.512;2023-08-08T09:38:34;97958.00;;;15.75;48.41
75039;BME280;63609;49.992;14.512;2023-08-08T09:41:01;97957.63;;;16.86;46.14
75039;BME280;63609;49.992;14.512;2023-08-08T09:43:29;97970.31;;;16.50;45.06
75039;BME280;63609;49.992;14.512;2023-08-08T09:45:56;97962.97;;;16.80;44.95
75039;BME280;63609;49.992;14.512;2023-08-08T09:48:23;97961.06;;;16.38;43.73
75039;BME280;63609;49.992;14.512;2023-08-08T09:50:57;97962.38;;;16.27;43.39
75039;BME280;63609;49.992;14.512;2023-08-08T09:53:27;97954.22;;;16.99;42.71
75039;BME280;63609;49.992;14.512;2023-08-08T09:55:55;97943.56;;;17.19;42.15
75039;BME280;63609;49.992;14.512;2023-08-08T09:58:24;97954.16;;;16.92;42.35
75039;BME280;63609;49.992;14.512;2023-08-08T10:00:53;97945.41;;;16.69;42.55
75039;BME280;63609;49.992;14.512;2023-08-08T10:03:21;97941.78;;;16.77;41.93
75039;BME280;63609;49.992;14.512;2023-08-08T10:05:49;97949.69;;;16.63;42.71
75039;BME280;63609;49.992;14.512;2023-08-08T10:08:16;97945.13;;;16.79;42.11
75039;BME280;63609;49.992;14.512;2023-08-08T10:10:48;97954.84;;;17.01;43.42
75039;BME280;63609;49.992;14.512;2023-08-08T10:15:48;97932.88;;;16.61;44.70
75039;BME280;63609;49.992;14.512;2023-08-08T10:18:16;97945.28;;;16.99;43.22
75039;BME280;63609;49.992;14.512;2023-08-08T10:20:46;97935.19;;;17.63;42.99
75039;BME280;63609;49.992;14.512;2023-08-08T10:23:18;97940.03;;;17.81;42.15
75039;BME280;63609;49.992;14.512;2023-08-08T10:25:47;97931.88;;;17.68;40.64
75039;BME280;63609;49.992;14.512;2023-08-08T10:28:18;97920.19;;;17.61;39.55
75039;BME280;63609;49.992;14.512;2023-08-08T10:30:55;97927.34;;;17.81;41.51
75039;BME280;63609;49.992;14.512;2023-08-08T10:33:42;97924.59;;;17.06;41.32
75039;BME280;63609;49.992;14.512;2023-08-08T10:36:10;97928.41;;;16.47;42.73
75039;BME280;63609;49.992;14.512;2023-08-08T10:38:40;97928.00;;;17.49;41.73
75039;BME280;63609;49.992;14.512;2023-08-08T10:41:15;97925.19;;;18.11;41.34
75039;BME280;63609;49.992;14.512;2023-08-08T10:43:51;97916.00;;;18.60;38.73
75039;BME280;63609;49.992;14.512;2023-08-08T10:46:28;97902.69;;;19.12;40.24
75039;BME280;63609;49.992;14.512;2023-08-08T10:49:00;97900.81;;;18.79;38.89
75039;BME280;63609;49.992;14.512;2023-08-08T10:51:39;97914.50;;;18.44;38.79
75039;BME280;63609;49.992;14.512;2023-08-08T10:56:40;97903.63;;;17.64;38.37
75039;BME280;63609;49.992;14.512;2023-08-08T10:59:15;97902.81;;;17.70;38.98
75039;BME280;63609;49.992;14.512;2023-08-08T11:01:48;97901.56;;;17.72;38.13
75039;BME280;63609;49.992;14.512;2023-08-08T11:04:22;97898.25;;;17.77;38.46
75039;BME280;63609;49.992;14.512;2023-08-08T11:06:54;97898.75;;;17.18;39.92
75039;BME280;63609;49.992;14.512;2023-08-08T11:09:22;97891.53;;;17.60;39.50
75039;BME280;63609;49.992;14.512;2023-08-08T11:11:49;97894.56;;;17.91;39.25
75039;BME280;63609;49.992;14.512;2023-08-08T11:14:18;97893.50;;;17.79;39.19
75039;BME280;63609;49.992;14.512;2023-08-08T11:16:47;97879.56;;;18.56;37.72
75039;BME280;63609;49.992;14.512;2023-08-08T11:19:14;97864.16;;;19.16;38.35
75039;BME280;63609;49.992;14.512;2023-08-08T11:21:45;97865.66;;;19.90;37.39
75039;BME280;63609;49.992;14.512;2023-08-08T11:24:13;97866.44;;;19.32;36.52
75039;BME280;63609;49.992;14.512;2023-08-08T11:26:42;97873.31;;;18.36;38.05
75039;BME280;63609;49.992;14.512;2023-08-08T11:29:12;97876.69;;;17.90;38.96
75039;BME280;63609;49.992;14.512;2023-08-08T11:31:39;97868.97;;;18.94;38.58
75039;BME280;63609;49.992;14.512;2023-08-08T11:34:07;97859.81;;;18.49;37.97
75039;BME280;63609;49.992;14.512;2023-08-08T11:36:37;97865.81;;;17.64;37.42
75039;BME280;63609;49.992;14.512;2023-08-08T11:39:05;97871.72;;;17.46;38.33
75039;BME280;63609;49.992;14.512;2023-08-08T11:41:38;97879.06;;;16.96;37.63
75039;BME280;63609;49.992;14.512;2023-08-08T11:44:06;97863.63;;;17.11;37.39
75039;BME280;63609;49.992;14.512;2023-08-08T11:46:43;97873.03;;;18.04;37.24
75039;BME280;63609;49.992;14.512;2023-08-08T11:49:13;97867.06;;;18.29;36.79
75039;BME280;63609;49.992;14.512;2023-08-08T11:51:45;97847.56;;;18.60;36.31
75039;BME280;63609;49.992;14.512;2023-08-08T11:54:13;97859.19;;;18.40;37.25
75039;BME280;63609;49.992;14.512;2023-08-08T11:56:40;97850.06;;;17.33;35.87
75039;BME280;63609;49.992;14.512;2023-08-08T11:59:07;97844.94;;;17.51;35.24
75039;BME280;63609;49.992;14.512;2023-08-08T12:01:35;97851.53;;;17.35;36.79
75039;BME280;63609;49.992;14.512;2023-08-08T12:04:07;97843.03;;;17.79;37.18
75039;BME280;63609;49.992;14.512;2023-08-08T12:06:37;97838.13;;;18.23;36.26
75039;BME280;63609;49.992;14.512;2023-08-08T12:09:06;97836.31;;;18.69;35.76
75039;BME280;63609;49.992;14.512;2023-08-08T12:11:36;97832.13;;;19.00;35.59
75039;BME280;63609;49.992;14.512;2023-08-08T12:14:09;97820.50;;;19.06;36.19
75039;BME280;63609;49.992;14.512;2023-08-08T12:16:37;97823.78;;;19.73;36.06
75039;BME280;63609;49.992;14.512;2023-08-08T12:19:07;97827.28;;;19.93;33.84
75039;BME280;63609;49.992;14.512;2023-08-08T12:21:40;97828.91;;;19.43;34.97
75039;BME280;63609;49.992;14.512;2023-08-08T12:24:07;97822.50;;;19.24;35.65
75039;BME280;63609;49.992;14.512;2023-08-08T12:26:34;97832.97;;;19.00;34.47
75039;BME280;63609;49.992;14.512;2023-08-08T12:29:01;97826.50;;;19.73;34.98
75039;BME280;63609;49.992;14.512;2023-08-08T12:31:28;97833.56;;;20.18;33.65
75039;BME280;63609;49.992;14.512;2023-08-08T12:33:57;97823.16;;;19.77;32.96
75039;BME280;63609;49.992;14.512;2023-08-08T12:36:24;97812.13;;;19.14;33.38
75039;BME280;63609;49.992;14.512;2023-08-08T12:38:51;97815.28;;;19.11;34.40
75039;BME280;63609;49.992;14.512;2023-08-08T12:41:18;97820.28;;;18.81;34.98
75039;BME280;63609;49.992;14.512;2023-08-08T12:43:45;97820.88;;;18.17;35.25
75039;BME280;63609;49.992;14.512;2023-08-08T12:46:12;97824.06;;;18.40;35.54
75039;BME280;63609;49.992;14.512;2023-08-08T12:48:39;97826.69;;;18.07;35.86
75039;BME280;63609;49.992;14.512;2023-08-08T12:51:06;97809.25;;;18.89;35.49
75039;BME280;63609;49.992;14.512;2023-08-08T12:53:35;97808.06;;;19.50;34.55
75039;BME280;63609;49.992;14.512;2023-08-08T12:56:03;97813.66;;;19.61;34.58
75039;BME280;63609;49.992;14.512;2023-08-08T12:58:30;97817.78;;;18.99;32.66
75039;BME280;63609;49.992;14.512;2023-08-08T13:00:57;97813.19;;;19.13;32.88
75039;BME280;63609;49.992;14.512;2023-08-08T13:03:23;97809.06;;;18.44;33.10
75039;BME280;63609;49.992;14.512;2023-08-08T13:05:50;97808.63;;;18.87;32.82
75039;BME280;63609;49.992;14.512;2023-08-08T13:08:18;97812.81;;;18.70;35.00
75039;BME280;63609;49.992;14.512;2023-08-08T13:10:46;97804.69;;;18.76;33.94